Time;durP1;ratioP1;P1;durP2;ratioP2;P2;SDS_P1;SDS_P2;PMS_P1;PMS_P2;Temp;Humidity;BMP_temperature;BMP_pressure;BME280_temperature;BME280_humidity;BME280_pressure;Samples;Min_cycle;Max_cycle;Signal;HPM_P1;HPM_P2
2023/06/01 00:02:01;;;;;;;;;;;;;;;;;;6249457;22;19922;-91
2023/06/01 00:04:27;;;;;;;;;;;;;;;;;;6225234;22;19920;-91
2023/06/01 00:06:53;;;;;;;;;;;;;;;;;;6249918;22;20256;-91
2023/06/01 00:09:19;;;;;;;;;;;;;;;;;;6224973;22;20351;-91
2023/06/01 00:11:45;;;;;;;;;;;;;;;;;;6225076;22;19969;-92
2023/06/01 00:14:11;;;;;;;;;;;;;;;;;;6225060;22;19986;-92
2023/06/01 00:16:37;;;;;;;;;;;;;;;;;;6223922;22;20244;-92
2023/06/01 00:19:03;;;;;;;;;;;;;;;;;;6224742;22;19927;-92
2023/06/01 00:21:32;;;;;;;;;;;;;;;;;;6224757;22;19962;-89
2023/06/01 00:23:58;;;;;;;;;;;;;;;;;;6276547;22;20240;-90
2023/06/01 00:26:25;;;;;;;;;;;;;;;;;;6249082;22;19942;-88
2023/06/01 00:28:51;;;;;;;;;;;;;;;;;;6249046;22;20257;-89
2023/06/01 00:31:17;;;;;;;;;;;;;;;;;;6248673;22;19926;-89
2023/06/01 00:33:43;;;;;;;;;;;;;;;;;;6223801;22;19925;-88
2023/06/01 00:36:09;;;;;;;;;;;;;;;;;;6223940;22;20323;-88
2023/06/01 00:38:35;;;;;;;;;;;;;;;;;;6249340;22;19982;-90
2023/06/01 00:41:01;;;;;;;;;;;;;;;;;;6224205;22;19915;-89
2023/06/01 00:43:27;;;;;;;;;;;;;;;;;;6276309;22;19988;-89
2023/06/01 00:45:52;;;;;;;;;;;;;;;;;;6248548;22;19941;-89
2023/06/01 00:48:19;;;;;;;;;;;;;;;;;;6223427;22;19947;-88
2023/06/01 00:50:45;;;;;;;;;;;;;;;;;;6224098;22;19966;-90
2023/06/01 00:53:10;;;;;;;;;;;;;;;;;;6249179;22;20266;-90
2023/06/01 00:55:36;;;;;;;;;;;;;;;;;;6223572;22;19915;-90
2023/06/01 00:58:02;;;;;;;;;;;;;;;;;;6249580;22;19922;-90
2023/06/01 01:00:28;;;;;;;;;;;;;;;;;;6249214;22;20363;-92
2023/06/01 01:02:56;;;;;;;;;;;;;;;;;;6223927;22;19915;-92
2023/06/01 01:05:26;;;;;;;;;;;;;;;;;;6248483;22;19965;-90
2023/06/01 01:07:52;;;;;;;;;;;;;;;;;;6222900;22;19915;-91
2023/06/01 01:10:18;;;;;;;;;;;;;;;;;;6223500;22;20260;-91
2023/06/01 01:12:44;;;;;;;;;;;;;;;;;;6276256;22;19915;-91
2023/06/01 01:15:11;;;;;;;;;;;;;;;;;;6248713;22;19995;-91
2023/06/01 01:17:38;;;;;;;;;;;;;;;;;;6248508;22;20006;-91
2023/06/01 01:20:08;;;;;;;;;;;;;;;;;;6223571;22;19950;-90
2023/06/01 01:22:34;;;;;;;;;;;;;;;;;;6248736;22;19921;-91
2023/06/01 01:25:00;;;;;;;;;;;;;;;;;;6223318;22;19919;-89
2023/06/01 01:27:26;;;;;;;;;;;;;;;;;;6247901;22;19927;-90
2023/06/01 01:29:52;;;;;;;;;;;;;;;;;;6248402;22;19916;-89
2023/06/01 01:32:18;;;;;;;;;;;;;;;;;;6248109;22;19942;-89
2023/06/01 01:34:43;;;;;;;;;;;;;;;;;;6275601;22;19919;-90
2023/06/01 01:37:09;;;;;;;;;;;;;;;;;;6222986;22;19915;-90
2023/06/01 01:39:35;;;;;;;;;;;;;;;;;;6248352;22;20329;-90
2023/06/01 01:42:01;;;;;;;;;;;;;;;;;;6248111;22;19966;-90
2023/06/01 01:44:29;;;;;;;;;;;;;;;;;;6248106;22;20446;-89
2023/06/01 01:46:55;;;;;;;;;;;;;;;;;;6248016;22;20300;-89
2023/06/01 01:49:21;;;;;;;;;;;;;;;;;;6248577;22;19924;-90
2023/06/01 01:51:47;;;;;;;;;;;;;;;;;;6248202;22;20247;-89
2023/06/01 01:54:13;;;;;;;;;;;;;;;;;;6222864;22;20282;-89
2023/06/01 01:56:38;;;;;;;;;;;;;;;;;;6248351;22;19921;-88
2023/06/01 01:59:04;;;;;;;;;;;;;;;;;;6248104;22;19922;-89
2023/06/01 02:01:31;;;;;;;;;;;;;;;;;;6222884;22;19922;-88
2023/06/01 02:03:56;;;;;;;;;;;;;;;;;;6247996;22;19941;-89
2023/06/01 02:06:22;;;;;;;;;;;;;;;;;;6222528;22;19923;-88
2023/06/01 02:08:48;;;;;;;;;;;;;;;;;;6248021;22;20394;-89
2023/06/01 02:11:14;;;;;;;;;;;;;;;;;;6222770;22;19916;-89
2023/06/01 02:13:40;;;;;;;;;;;;;;;;;;6222542;22;19998;-89
2023/06/01 02:16:06;;;;;;;;;;;;;;;;;;6247877;22;19915;-88
2023/06/01 02:18:32;;;;;;;;;;;;;;;;;;6248376;22;19915;-89
2023/06/01 02:20:58;;;;;;;;;;;;;;;;;;6250029;22;20264;-90
2023/06/01 02:23:24;;;;;;;;;;;;;;;;;;6249984;22;20230;-90
2023/06/01 02:25:51;;;;;;;;;;;;;;;;;;6277398;22;19923;-90
2023/06/01 02:28:17;;;;;;;;;;;;;;;;;;6224744;22;19923;-91
2023/06/01 02:30:43;;;;;;;;;;;;;;;;;;6249800;22;19938;-89
2023/06/01 02:33:09;;;;;;;;;;;;;;;;;;6224893;22;19982;-90
2023/06/01 02:35:35;;;;;;;;;;;;;;;;;;6224532;22;20375;-89
2023/06/01 02:38:01;;;;;;;;;;;;;;;;;;6249824;22;20011;-90
2023/06/01 02:40:27;;;;;;;;;;;;;;;;;;6249835;22;19915;-89
2023/06/01 02:42:52;;;;;;;;;;;;;;;;;;6224625;22;19958;-90
2023/06/01 02:45:18;;;;;;;;;;;;;;;;;;6249894;22;19915;-91
2023/06/01 02:47:44;;;;;;;;;;;;;;;;;;6224313;22;20219;-90
2023/06/01 02:50:10;;;;;;;;;;;;;;;;;;6224857;22;19923;-90
2023/06/01 02:52:37;;;;;;;;;;;;;;;;;;6277250;22;19982;-89
2023/06/01 02:55:02;;;;;;;;;;;;;;;;;;6249624;22;19922;-89
2023/06/01 02:57:28;;;;;;;;;;;;;;;;;;6277038;22;19961;-90
2023/06/01 02:59:54;;;;;;;;;;;;;;;;;;6224511;22;20321;-89
2023/06/01 03:02:20;;;;;;;;;;;;;;;;;;6249621;22;20296;-88
2023/06/01 03:04:46;;;;;;;;;;;;;;;;;;6224001;22;19941;-89
2023/06/01 03:07:12;;;;;;;;;;;;;;;;;;6249820;22;19926;-89
2023/06/01 03:09:38;;;;;;;;;;;;;;;;;;6249456;22;19980;-87
2023/06/01 03:12:04;;;;;;;;;;;;;;;;;;6249494;22;20380;-88
2023/06/01 03:14:30;;;;;;;;;;;;;;;;;;6249530;22;19919;-88
2023/06/01 03:16:56;;;;;;;;;;;;;;;;;;6276886;22;20055;-88
2023/06/01 03:19:22;;;;;;;;;;;;;;;;;;6277009;22;19919;-88
2023/06/01 03:21:48;;;;;;;;;;;;;;;;;;6249779;22;20325;-89
2023/06/01 03:24:14;;;;;;;;;;;;;;;;;;6223893;22;19919;-89
2023/06/01 03:26:41;;;;;;;;;;;;;;;;;;6223633;22;19919;-88
2023/06/01 03:29:06;;;;;;;;;;;;;;;;;;6224129;22;19915;-88
2023/06/01 03:31:34;;;;;;;;;;;;;;;;;;6276790;22;19915;-88
2023/06/01 03:34:00;;;;;;;;;;;;;;;;;;6276688;22;20223;-87
2023/06/01 03:36:26;;;;;;;;;;;;;;;;;;6276682;22;19926;-88
2023/06/01 03:38:52;;;;;;;;;;;;;;;;;;6249160;22;19922;-88
2023/06/01 03:41:17;;;;;;;;;;;;;;;;;;6249242;22;19919;-88
2023/06/01 03:43:43;;;;;;;;;;;;;;;;;;6249533;22;19915;-88
2023/06/01 03:46:09;;;;;;;;;;;;;;;;;;6249022;22;19919;-89
2023/06/01 03:48:35;;;;;;;;;;;;;;;;;;6223867;22;19930;-89
2023/06/01 03:51:01;;;;;;;;;;;;;;;;;;6223806;22;19969;-89
2023/06/01 03:53:27;;;;;;;;;;;;;;;;;;6223743;22;19919;-88
2023/06/01 03:55:54;;;;;;;;;;;;;;;;;;6276476;22;19915;-89
2023/06/01 03:58:20;;;;;;;;;;;;;;;;;;6249257;22;19915;-90
2023/06/01 04:00:46;;;;;;;;;;;;;;;;;;6223879;22;20356;-88
2023/06/01 04:03:13;;;;;;;;;;;;;;;;;;6276499;22;19915;-88
2023/06/01 04:05:39;;;;;;;;;;;;;;;;;;6223385;22;19926;-88
2023/06/01 04:08:05;;;;;;;;;;;;;;;;;;6276352;22;19978;-89
2023/06/01 04:10:30;;;;;;;;;;;;;;;;;;6224225;22;19972;-89
2023/06/01 04:12:56;;;;;;;;;;;;;;;;;;6249049;22;19915;-89
2023/06/01 04:15:22;;;;;;;;;;;;;;;;;;6224543;22;19915;-89
2023/06/01 04:17:48;;;;;;;;;;;;;;;;;;6249792;22;20198;-89
2023/06/01 04:20:15;;;;;;;;;;;;;;;;;;6223450;22;19915;-90
2023/06/01 04:22:41;;;;;;;;;;;;;;;;;;6249030;22;19922;-89
2023/06/01 04:25:08;;;;;;;;;;;;;;;;;;6223358;22;19924;-90
2023/06/01 04:27:36;;;;;;;;;;;;;;;;;;6246900;22;19918;-90
2023/06/01 04:30:02;;;;;;;;;;;;;;;;;;6255910;22;20265;-91
2023/06/01 04:32:28;;;;;;;;;;;;;;;;;;6258481;22;19915;-92
2023/06/01 04:34:56;;;;;;;;;;;;;;;;;;6283142;22;20332;-93
2023/06/01 04:37:31;;;;;;;;;;;;;;;;;;6283949;22;19915;-91
2023/06/01 04:39:57;;;;;;;;;;;;;;;;;;6255924;22;19993;-92
2023/06/01 04:42:23;;;;;;;;;;;;;;;;;;6260740;22;19968;-92
2023/06/01 04:44:49;;;;;;;;;;;;;;;;;;6299914;22;20007;-92
2023/06/01 04:47:16;;;;;;;;;;;;;;;;;;6272554;22;19915;-93
2023/06/01 04:49:42;;;;;;;;;;;;;;;;;;6303690;22;19962;-93
2023/06/01 04:52:09;;;;;;;;;;;;;;;;;;6279536;22;19919;-92
2023/06/01 04:54:35;;;;;;;;;;;;;;;;;;6300643;22;19926;-93
2023/06/01 05:00:06;;;;;;;;;;;;;;;;;;6300122;22;20114;-93
2023/06/01 05:02:32;;;;;;;;;;;;;;;;;;6279604;22;19954;-92
2023/06/01 05:04:58;;;;;;;;;;;;;;;;;;6266977;22;19915;-91
2023/06/01 05:07:27;;;;;;;;;;;;;;;;;;6284571;22;19922;-92
2023/06/01 05:09:53;;;;;;;;;;;;;;;;;;6297504;22;19994;-92
2023/06/01 05:12:18;;;;;;;;;;;;;;;;;;6255685;22;19985;-92
2023/06/01 05:14:44;;;;;;;;;;;;;;;;;;6279897;22;19922;-91
2023/06/01 05:17:10;;;;;;;;;;;;;;;;;;6280275;22;20236;-91
2023/06/01 05:19:36;;;;;;;;;;;;;;;;;;6255277;22;20166;-93
2023/06/01 05:22:02;;;;;;;;;;;;;;;;;;6280759;22;20287;-93
2023/06/01 05:24:28;;;;;;;;;;;;;;;;;;6254591;22;20360;-91
2023/06/01 05:26:54;;;;;;;;;;;;;;;;;;6278450;22;19993;-90
2023/06/01 05:29:21;;;;;;;;;;;;;;;;;;6279108;22;20228;-90
2023/06/01 05:31:47;;;;;;;;;;;;;;;;;;6254068;22;19914;-90
2023/06/01 05:34:13;;;;;;;;;;;;;;;;;;6280028;22;20312;-90
2023/06/01 05:36:40;;;;;;;;;;;;;;;;;;6279871;22;19914;-91
2023/06/01 05:39:06;;;;;;;;;;;;;;;;;;6254170;22;19994;-91
2023/06/01 05:41:32;;;;;;;;;;;;;;;;;;6254352;22;19994;-91
2023/06/01 05:43:58;;;;;;;;;;;;;;;;;;6280218;22;19915;-92
2023/06/01 05:46:24;;;;;;;;;;;;;;;;;;6281213;22;19972;-93
2023/06/01 05:48:51;;;;;;;;;;;;;;;;;;6256336;22;20328;-93
2023/06/01 05:51:17;;;;;;;;;;;;;;;;;;6281405;22;19950;-93
2023/06/01 05:53:43;;;;;;;;;;;;;;;;;;6255335;22;20000;-90
2023/06/01 05:56:09;;;;;;;;;;;;;;;;;;6255589;22;19918;-93
2023/06/01 05:58:35;;;;;;;;;;;;;;;;;;6280384;22;20343;-90
2023/06/01 06:01:00;;;;;;;;;;;;;;;;;;6254936;22;20265;-91
2023/06/01 06:03:27;;;;;;;;;;;;;;;;;;6308920;22;19956;-90
2023/06/01 06:05:53;;;;;;;;;;;;;;;;;;6280916;22;20282;-91
2023/06/01 06:08:19;;;;;;;;;;;;;;;;;;6281372;22;19951;-90
2023/06/01 06:10:45;;;;;;;;;;;;;;;;;;6308907;22;20343;-91
2023/06/01 06:13:11;;;;;;;;;;;;;;;;;;6255286;22;19964;-91
2023/06/01 06:15:37;;;;;;;;;;;;;;;;;;6280880;22;19915;-91
2023/06/01 06:18:03;;;;;;;;;;;;;;;;;;6255698;22;20045;-93
2023/06/01 06:20:29;;;;;;;;;;;;;;;;;;6281353;22;19968;-92
2023/06/01 06:22:55;;;;;;;;;;;;;;;;;;6281996;22;20399;-93
2023/06/01 06:25:21;;;;;;;;;;;;;;;;;;6257282;22;19998;-94
2023/06/01 06:27:47;;;;;;;;;;;;;;;;;;6309618;22;19919;-92
2023/06/01 06:30:13;;;;;;;;;;;;;;;;;;6257022;22;20328;-95
2023/06/01 06:32:39;;;;;;;;;;;;;;;;;;6283134;22;20051;-94
2023/06/01 06:35:06;;;;;;;;;;;;;;;;;;6256615;22;19922;-95
2023/06/01 06:37:32;;;;;;;;;;;;;;;;;;6256593;22;19915;-95
2023/06/01 06:39:58;;;;;;;;;;;;;;;;;;6281651;22;19922;-95
2023/06/01 06:42:24;;;;;;;;;;;;;;;;;;6309640;22;20353;-93
2023/06/01 06:44:50;;;;;;;;;;;;;;;;;;6281168;22;20405;-92
2023/06/01 06:47:19;;;;;;;;;;;;;;;;;;6281211;22;19998;-92
2023/06/01 06:49:45;;;;;;;;;;;;;;;;;;6280822;22;19915;-90
2023/06/01 06:52:11;;;;;;;;;;;;;;;;;;6281095;22;20339;-91
2023/06/01 06:54:37;;;;;;;;;;;;;;;;;;6254876;22;19915;-91
2023/06/01 06:57:04;;;;;;;;;;;;;;;;;;6308065;22;19914;-90
2023/06/01 06:59:30;;;;;;;;;;;;;;;;;;6280993;22;19915;-91
2023/06/01 07:01:56;;;;;;;;;;;;;;;;;;6254803;22;19919;-92
2023/06/01 07:04:22;;;;;;;;;;;;;;;;;;6254985;22;19919;-89
2023/06/01 07:06:48;;;;;;;;;;;;;;;;;;6281200;22;20321;-92
2023/06/01 07:09:14;;;;;;;;;;;;;;;;;;6253569;22;19976;-95
2023/06/01 07:11:41;;;;;;;;;;;;;;;;;;6255044;22;19923;-94
2023/06/01 07:14:07;;;;;;;;;;;;;;;;;;6254139;22;19915;-92
2023/06/01 07:16:33;;;;;;;;;;;;;;;;;;6281795;22;19921;-92
2023/06/01 07:18:59;;;;;;;;;;;;;;;;;;6255884;22;19945;-93
2023/06/01 07:21:25;;;;;;;;;;;;;;;;;;6280754;22;19922;-95
2023/06/01 07:23:51;;;;;;;;;;;;;;;;;;6281773;22;20047;-91
2023/06/01 07:26:18;;;;;;;;;;;;;;;;;;6280134;22;19995;-89
2023/06/01 07:28:44;;;;;;;;;;;;;;;;;;6280751;22;19919;-91
2023/06/01 07:31:10;;;;;;;;;;;;;;;;;;6280679;22;19968;-93
2023/06/01 07:33:36;;;;;;;;;;;;;;;;;;6255749;22;19947;-93
2023/06/01 07:36:01;;;;;;;;;;;;;;;;;;6255279;22;20295;-93
2023/06/01 07:38:28;;;;;;;;;;;;;;;;;;6281200;22;20002;-91
2023/06/01 07:40:54;;;;;;;;;;;;;;;;;;6283134;22;20336;-91
2023/06/01 07:43:20;;;;;;;;;;;;;;;;;;6254725;22;20001;-92
2023/06/01 07:45:45;;;;;;;;;;;;;;;;;;6255107;22;19921;-93
2023/06/01 07:48:11;;;;;;;;;;;;;;;;;;6279895;22;20328;-92
2023/06/01 07:50:38;;;;;;;;;;;;;;;;;;6254680;22;19950;-93
2023/06/01 07:53:03;;;;;;;;;;;;;;;;;;6253929;22;19915;-91
2023/06/01 07:55:29;;;;;;;;;;;;;;;;;;6254528;22;19922;-91
2023/06/01 07:57:55;;;;;;;;;;;;;;;;;;6279515;22;19915;-91
2023/06/01 08:00:22;;;;;;;;;;;;;;;;;;6254094;22;19922;-91
2023/06/01 08:02:48;;;;;;;;;;;;;;;;;;6254589;22;19925;-91
2023/06/01 08:05:18;;;;;;;;;;;;;;;;;;6280073;22;20350;-92
2023/06/01 08:07:45;;;;;;;;;;;;;;;;;;6254367;22;19918;-90
2023/06/01 08:10:11;;;;;;;;;;;;;;;;;;6254228;22;19915;-92
2023/06/01 08:12:37;;;;;;;;;;;;;;;;;;6280165;22;19950;-94
2023/06/01 08:15:03;;;;;;;;;;;;;;;;;;6255477;22;19915;-93
2023/06/01 08:17:29;;;;;;;;;;;;;;;;;;6254895;22;20019;-93
2023/06/01 08:19:56;;;;;;;;;;;;;;;;;;6253986;22;19946;-91
2023/06/01 08:22:23;;;;;;;;;;;;;;;;;;6307395;22;19961;-93
2023/06/01 08:24:51;;;;;;;;;;;;;;;;;;6253732;22;20286;-92
2023/06/01 08:27:17;;;;;;;;;;;;;;;;;;6253979;22;20333;-93
2023/06/01 08:29:43;;;;;;;;;;;;;;;;;;6253815;22;19986;-93
2023/06/01 08:32:09;;;;;;;;;;;;;;;;;;6253868;22;19915;-91
2023/06/01 08:34:35;;;;;;;;;;;;;;;;;;6279752;22;20364;-91
2023/06/01 08:37:01;;;;;;;;;;;;;;;;;;6279597;22;19915;-91
2023/06/01 08:39:27;;;;;;;;;;;;;;;;;;6254345;22;19915;-92
2023/06/01 08:41:53;;;;;;;;;;;;;;;;;;6279821;22;19914;-91
2023/06/01 08:44:20;;;;;;;;;;;;;;;;;;6280083;22;19921;-91
2023/06/01 08:46:45;;;;;;;;;;;;;;;;;;6253885;22;19998;-91
2023/06/01 08:49:11;;;;;;;;;;;;;;;;;;6279509;22;19919;-89
2023/06/01 08:51:37;;;;;;;;;;;;;;;;;;6254131;22;19945;-94
2023/06/01 08:54:03;;;;;;;;;;;;;;;;;;6279759;22;20241;-93
2023/06/01 08:56:29;;;;;;;;;;;;;;;;;;6279506;22;19915;-90
2023/06/01 08:58:55;;;;;;;;;;;;;;;;;;6253862;22;20384;-91
2023/06/01 09:01:22;;;;;;;;;;;;;;;;;;6253750;22;19915;-91
2023/06/01 09:03:48;;;;;;;;;;;;;;;;;;6279728;22;20329;-92
2023/06/01 09:06:15;;;;;;;;;;;;;;;;;;6254335;22;19922;-93
2023/06/01 09:08:41;;;;;;;;;;;;;;;;;;6279479;22;19997;-92
2023/06/01 09:11:07;;;;;;;;;;;;;;;;;;6254535;22;19964;-92
2023/06/01 09:13:33;;;;;;;;;;;;;;;;;;6254163;22;19976;-94
2023/06/01 09:15:59;;;;;;;;;;;;;;;;;;6254740;22;19934;-93
2023/06/01 09:18:24;;;;;;;;;;;;;;;;;;6280368;22;19981;-93
2023/06/01 09:20:53;;;;;;;;;;;;;;;;;;6255116;22;20301;-93
2023/06/01 09:23:19;;;;;;;;;;;;;;;;;;6255141;22;20405;-94
2023/06/01 09:25:45;;;;;;;;;;;;;;;;;;6279966;22;19919;-94
2023/06/01 09:28:11;;;;;;;;;;;;;;;;;;6280360;22;19976;-92
2023/06/01 09:30:37;;;;;;;;;;;;;;;;;;6280402;22;19926;-96
2023/06/01 09:33:03;;;;;;;;;;;;;;;;;;6309456;22;19921;-94
2023/06/01 09:35:29;;;;;;;;;;;;;;;;;;6281925;22;19921;-93
2023/06/01 09:37:57;;;;;;;;;;;;;;;;;;6284653;22;19939;-96
2023/06/01 09:40:26;;;;;;;;;;;;;;;;;;6314658;22;19985;-96
2023/06/01 09:42:52;;;;;;;;;;;;;;;;;;6281792;22;20034;-91
2023/06/01 09:45:18;;;;;;;;;;;;;;;;;;6282390;22;20029;-94
2023/06/01 09:47:44;;;;;;;;;;;;;;;;;;6254210;22;20238;-95
2023/06/01 09:50:11;;;;;;;;;;;;;;;;;;6254435;22;19922;-93
2023/06/01 09:52:37;;;;;;;;;;;;;;;;;;6279613;22;19919;-93
2023/06/01 09:55:03;;;;;;;;;;;;;;;;;;6253894;22;19914;-93
2023/06/01 09:57:29;;;;;;;;;;;;;;;;;;6280180;22;19922;-93
2023/06/01 09:59:55;;;;;;;;;;;;;;;;;;6253718;22;19922;-92
2023/06/01 10:02:21;;;;;;;;;;;;;;;;;;6253412;22;19919;-93
2023/06/01 10:04:46;;;;;;;;;;;;;;;;;;6279820;22;19926;-93
2023/06/01 10:07:12;;;;;;;;;;;;;;;;;;6254657;22;19989;-93
2023/06/01 10:09:39;;;;;;;;;;;;;;;;;;6279675;22;19993;-92
2023/06/01 10:12:04;;;;;;;;;;;;;;;;;;6282943;22;20300;-93
2023/06/01 10:14:31;;;;;;;;;;;;;;;;;;6306959;22;19922;-94
2023/06/01 10:16:57;;;;;;;;;;;;;;;;;;6254680;22;20264;-94
2023/06/01 10:19:23;;;;;;;;;;;;;;;;;;6254515;22;19938;-91
2023/06/01 10:21:50;;;;;;;;;;;;;;;;;;6253230;22;19984;-91
2023/06/01 10:24:15;;;;;;;;;;;;;;;;;;6253677;22;19954;-90
2023/06/01 10:26:41;;;;;;;;;;;;;;;;;;6306121;22;19916;-89
2023/06/01 10:29:08;;;;;;;;;;;;;;;;;;6254001;22;20044;-94
2023/06/01 10:31:35;;;;;;;;;;;;;;;;;;6281847;22;19922;-95
2023/06/01 10:34:01;;;;;;;;;;;;;;;;;;6281684;22;19921;-94
2023/06/01 10:36:27;;;;;;;;;;;;;;;;;;6287584;22;19918;-95
2023/06/01 10:38:53;;;;;;;;;;;;;;;;;;6260821;22;19921;-93
2023/06/01 10:41:19;;;;;;;;;;;;;;;;;;6258251;22;19986;-93
2023/06/01 10:43:45;;;;;;;;;;;;;;;;;;6283896;22;19937;-93
2023/06/01 10:46:11;;;;;;;;;;;;;;;;;;6281267;22;19919;-92
2023/06/01 10:48:37;;;;;;;;;;;;;;;;;;6256968;22;19922;-93
2023/06/01 10:51:02;;;;;;;;;;;;;;;;;;6309061;22;19976;-93
2023/06/01 10:53:31;;;;;;;;;;;;;;;;;;6280927;22;19914;-93
2023/06/01 10:55:57;;;;;;;;;;;;;;;;;;6253715;22;20045;-94
2023/06/01 10:58:24;;;;;;;;;;;;;;;;;;6260034;22;20288;-94
2023/06/01 11:00:50;;;;;;;;;;;;;;;;;;6255242;22;19914;-94
2023/06/01 11:03:15;;;;;;;;;;;;;;;;;;6281121;22;20244;-93
2023/06/01 11:05:48;;;;;;;;;;;;;;;;;;6255419;22;19922;-93
2023/06/01 11:08:14;;;;;;;;;;;;;;;;;;6255909;22;19955;-94
2023/06/01 11:10:40;;;;;;;;;;;;;;;;;;6280844;22;19922;-95
2023/06/01 11:13:08;;;;;;;;;;;;;;;;;;6255605;22;19914;-95
2023/06/01 11:15:34;;;;;;;;;;;;;;;;;;6256547;22;19921;-94
2023/06/01 11:18:01;;;;;;;;;;;;;;;;;;6281585;22;19986;-94
2023/06/01 11:23:49;;;;;;;;;;;;;;;;;;6190709;23;19972;-94
2023/06/01 11:29:27;;;;;;;;;;;;;;;;;;6206224;22;19914;-96
2023/06/01 11:31:54;;;;;;;;;;;;;;;;;;6223177;23;19991;-96
2023/06/01 11:34:20;;;;;;;;;;;;;;;;;;6281328;22;19915;-93
2023/06/01 11:36:53;;;;;;;;;;;;;;;;;;6251082;22;20015;-95
2023/06/01 11:39:20;;;;;;;;;;;;;;;;;;6231171;22;19915;-95
2023/06/01 11:41:46;;;;;;;;;;;;;;;;;;6250760;22;19915;-95
2023/06/01 11:44:12;;;;;;;;;;;;;;;;;;6225960;22;20321;-93
2023/06/01 11:46:38;;;;;;;;;;;;;;;;;;6224994;22;19919;-96
2023/06/01 11:49:09;;;;;;;;;;;;;;;;;;6225125;22;19957;-96
2023/06/01 11:51:38;;;;;;;;;;;;;;;;;;6245793;22;19994;-96
2023/06/01 11:54:05;;;;;;;;;;;;;;;;;;6220887;22;19962;-95
2023/06/01 11:56:33;;;;;;;;;;;;;;;;;;6225624;22;19926;-96
2023/06/01 11:58:59;;;;;;;;;;;;;;;;;;6225611;22;19986;-95
2023/06/01 12:01:26;;;;;;;;;;;;;;;;;;6232548;22;19926;-95
2023/06/01 12:03:52;;;;;;;;;;;;;;;;;;6225400;22;19915;-94
2023/06/01 12:06:18;;;;;;;;;;;;;;;;;;6250779;22;19919;-93
2023/06/01 12:08:44;;;;;;;;;;;;;;;;;;6250689;22;20049;-95
2023/06/01 12:11:17;;;;;;;;;;;;;;;;;;6227649;22;19915;-96
2023/06/01 12:13:44;;;;;;;;;;;;;;;;;;6251861;22;19978;-94
2023/06/01 12:16:10;;;;;;;;;;;;;;;;;;6250681;22;20260;-93
2023/06/01 12:18:36;;;;;;;;;;;;;;;;;;6250448;22;19953;-94
2023/06/01 12:21:03;;;;;;;;;;;;;;;;;;6225182;22;19915;-93
2023/06/01 12:23:29;;;;;;;;;;;;;;;;;;6250390;22;19927;-92
2023/06/01 12:25:56;;;;;;;;;;;;;;;;;;6224296;22;20363;-93
2023/06/01 12:28:22;;;;;;;;;;;;;;;;;;6225475;22;19965;-95
2023/06/01 12:30:48;;;;;;;;;;;;;;;;;;6219968;23;19927;-96
2023/06/01 12:33:14;;;;;;;;;;;;;;;;;;6244873;23;19915;-96
2023/06/01 12:35:40;;;;;;;;;;;;;;;;;;6209899;22;20325;-95
2023/06/01 12:38:06;;;;;;;;;;;;;;;;;;6245422;23;19946;-94
2023/06/01 12:40:33;;;;;;;;;;;;;;;;;;6245812;23;19923;-96
2023/06/01 12:42:59;;;;;;;;;;;;;;;;;;6220671;23;19963;-92
2023/06/01 12:45:25;;;;;;;;;;;;;;;;;;6221692;23;19919;-93
2023/06/01 12:58:25;;;;;;;;;;;;;;;;;;6284493;22;20920;-94
2023/06/01 13:00:51;;;;;;;;;;;;;;;;;;6286365;22;19918;-94
2023/06/01 13:03:38;;;;;;;;;;;;;;;;;;6289184;22;19915;-95
2023/06/01 13:06:03;;;;;;;;;;;;;;;;;;6304273;22;20223;-95
2023/06/01 13:08:29;;;;;;;;;;;;;;;;;;6312223;22;19965;-94
2023/06/01 13:10:55;;;;;;;;;;;;;;;;;;6311113;22;20247;-93
2023/06/01 13:13:24;;;;;;;;;;;;;;;;;;6291758;22;19914;-92
2023/06/01 13:15:50;;;;;;;;;;;;;;;;;;6342453;22;19918;-93
2023/06/01 13:18:16;;;;;;;;;;;;;;;;;;6311822;22;19914;-95
2023/06/01 13:20:42;;;;;;;;;;;;;;;;;;6311583;22;19915;-93
2023/06/01 13:23:10;;;;;;;;;;;;;;;;;;6311910;22;19937;-94
2023/06/01 13:25:36;;;;;;;;;;;;;;;;;;6286394;22;19920;-92
2023/06/01 13:28:02;;;;;;;;;;;;;;;;;;6311746;22;20251;-92
2023/06/01 13:30:33;;;;;;;;;;;;;;;;;;6286002;22;19922;-91
2023/06/01 13:32:59;;;;;;;;;;;;;;;;;;6285818;22;19915;-93
2023/06/01 13:35:25;;;;;;;;;;;;;;;;;;6285540;22;19915;-93
2023/06/01 13:37:54;;;;;;;;;;;;;;;;;;6339506;22;19950;-93
2023/06/01 13:40:22;;;;;;;;;;;;;;;;;;6285982;22;19922;-96
2023/06/01 13:42:48;;;;;;;;;;;;;;;;;;6286404;22;19946;-93
2023/06/01 13:45:14;;;;;;;;;;;;;;;;;;6285369;22;19964;-94
2023/06/01 13:47:41;;;;;;;;;;;;;;;;;;6311287;22;20234;-94
2023/06/01 13:50:07;;;;;;;;;;;;;;;;;;6311671;22;20289;-95
2023/06/01 13:52:33;;;;;;;;;;;;;;;;;;6311558;22;19964;-92
2023/06/01 13:54:59;;;;;;;;;;;;;;;;;;6285504;22;20346;-94
2023/06/01 13:57:25;;;;;;;;;;;;;;;;;;6311332;22;19967;-95
2023/06/01 13:59:51;;;;;;;;;;;;;;;;;;6285997;22;19915;-94
2023/06/01 14:02:17;;;;;;;;;;;;;;;;;;6285798;22;19981;-93
2023/06/01 14:04:43;;;;;;;;;;;;;;;;;;6286815;22;19915;-93
2023/06/01 14:07:09;;;;;;;;;;;;;;;;;;6287744;22;19918;-93
2023/06/01 14:09:35;;;;;;;;;;;;;;;;;;6287323;22;19986;-94
2023/06/01 14:12:03;;;;;;;;;;;;;;;;;;6311756;22;19915;-95
2023/06/01 14:14:29;;;;;;;;;;;;;;;;;;6286296;22;19922;-93
2023/06/01 14:16:55;;;;;;;;;;;;;;;;;;6317229;22;19915;-95
2023/06/01 14:19:22;;;;;;;;;;;;;;;;;;6287308;22;19977;-94
2023/06/01 14:21:48;;;;;;;;;;;;;;;;;;6313366;22;19922;-94
2023/06/01 14:24:13;;;;;;;;;;;;;;;;;;6287642;22;19915;-93
2023/06/01 14:26:39;;;;;;;;;;;;;;;;;;6286754;22;20396;-94
2023/06/01 14:29:05;;;;;;;;;;;;;;;;;;6313097;22;20324;-93
2023/06/01 14:31:31;;;;;;;;;;;;;;;;;;6287426;22;19989;-92
2023/06/01 14:33:57;;;;;;;;;;;;;;;;;;6312766;22;19950;-92
2023/06/01 14:36:25;;;;;;;;;;;;;;;;;;6289622;22;19923;-93
2023/06/01 14:38:51;;;;;;;;;;;;;;;;;;6287252;22;20290;-92
2023/06/01 14:41:17;;;;;;;;;;;;;;;;;;6287348;22;19968;-93
2023/06/01 14:43:42;;;;;;;;;;;;;;;;;;6313084;22;19942;-93
2023/06/01 14:46:10;;;;;;;;;;;;;;;;;;6286747;22;19918;-94
2023/06/01 14:48:35;;;;;;;;;;;;;;;;;;6287048;22;19921;-91
2023/06/01 14:51:04;;;;;;;;;;;;;;;;;;6286785;22;19914;-94
2023/06/01 14:53:39;;;;;;;;;;;;;;;;;;6288308;22;19915;-96
2023/06/01 14:56:08;;;;;;;;;;;;;;;;;;6287894;22;19914;-94
2023/06/01 15:01:26;;;;;;;;;;;;;;;;;;6340187;22;19914;-93
2023/06/01 15:03:52;;;;;;;;;;;;;;;;;;6312514;22;20036;-92
2023/06/01 15:06:18;;;;;;;;;;;;;;;;;;6285986;22;19919;-94
2023/06/01 15:08:44;;;;;;;;;;;;;;;;;;6286909;22;20292;-94
2023/06/01 15:11:13;;;;;;;;;;;;;;;;;;6311882;22;19926;-93
2023/06/01 15:13:57;;;;;;;;;;;;;;;;;;6290077;22;19963;-92
2023/06/01 15:16:33;;;;;;;;;;;;;;;;;;;;;
2023/06/01 15:18:59;;;;;;;;;;;;;;;;;;6346439;22;19971;-95
2023/06/01 15:21:28;;;;;;;;;;;;;;;;;;6317211;22;19919;-94
2023/06/01 15:23:54;;;;;;;;;;;;;;;;;;6289689;22;19975;-91
2023/06/01 15:26:20;;;;;;;;;;;;;;;;;;6312915;22;19925;-94
2023/06/01 15:28:46;;;;;;;;;;;;;;;;;;6312943;22;19914;-95
2023/06/01 15:31:15;;;;;;;;;;;;;;;;;;6365522;22;19988;-96
2023/06/01 15:33:40;;;;;;;;;;;;;;;;;;6287234;22;19918;-93
2023/06/01 15:36:06;;;;;;;;;;;;;;;;;;6288281;22;20240;-90
2023/06/01 15:38:35;;;;;;;;;;;;;;;;;;6320754;22;19914;-95
2023/06/01 16:01:48;;;;;;;;;;;;;;;;;;6299563;22;19941;-94
2023/06/01 16:04:14;;;;;;;;;;;;;;;;;;6286251;22;20378;-96
2023/06/01 16:06:40;;;;;;;;;;;;;;;;;;6287128;22;19914;-95
2023/06/01 16:09:06;;;;;;;;;;;;;;;;;;6315818;22;19946;-93
2023/06/01 16:16:48;;;;;;;;;;;;;;;;;;6307716;22;20244;-96
2023/06/01 16:19:29;;;;;;;;;;;;;;;;;;6279383;22;19919;-94
2023/06/01 16:22:01;;;;;;;;;;;;;;;;;;6255126;22;19922;-96
2023/06/01 16:30:07;;;;;;;;;;;;;;;;;;6278788;22;19946;-92
2023/06/01 16:32:35;;;;;;;;;;;;;;;;;;6283511;22;19919;-93
2023/06/01 16:37:50;;;;;;;;;;;;;;;;;;6301744;22;19965;-96
2023/06/01 16:53:20;;;;;;;;;;;;;;;;;;6299392;22;19935;-95
2023/06/01 16:55:49;;;;;;;;;;;;;;;;;;6343443;22;20042;-95
2023/06/01 16:58:15;;;;;;;;;;;;;;;;;;6316455;22;20017;-96
2023/06/01 17:00:41;;;;;;;;;;;;;;;;;;6317352;22;19944;-95
2023/06/01 17:03:09;;;;;;;;;;;;;;;;;;6342664;22;19918;-96
2023/06/01 17:05:35;;;;;;;;;;;;;;;;;;6343418;22;20001;-95
2023/06/01 17:08:03;;;;;;;;;;;;;;;;;;6328038;22;19914;-94
2023/06/01 17:10:35;;;;;;;;;;;;;;;;;;6343045;22;20307;-95
2023/06/01 17:13:01;;;;;;;;;;;;;;;;;;6315968;22;19944;-94
2023/06/01 17:15:27;;;;;;;;;;;;;;;;;;6342923;22;19915;-92
2023/06/01 17:17:53;;;;;;;;;;;;;;;;;;6315822;22;19929;-94
2023/06/01 17:20:23;;;;;;;;;;;;;;;;;;6344884;22;19967;-94
2023/06/01 17:22:50;;;;;;;;;;;;;;;;;;6315935;22;19921;-92
2023/06/01 17:25:19;;;;;;;;;;;;;;;;;;6316510;22;20328;-93
2023/06/01 17:27:48;;;;;;;;;;;;;;;;;;6342242;22;20312;-94
2023/06/01 17:30:17;;;;;;;;;;;;;;;;;;6343645;22;19914;-94
2023/06/01 17:32:48;;;;;;;;;;;;;;;;;;6316625;22;19925;-95
2023/06/01 17:35:33;;;;;;;;;;;;;;;;;;6290206;22;20292;-94
2023/06/01 17:38:00;;;;;;;;;;;;;;;;;;6318365;22;19914;-96
2023/06/01 17:40:32;;;;;;;;;;;;;;;;;;6316527;22;19941;-94
2023/06/01 17:42:58;;;;;;;;;;;;;;;;;;6370026;22;20224;-92
2023/06/01 17:45:24;;;;;;;;;;;;;;;;;;6315824;22;19914;-92
2023/06/01 17:47:50;;;;;;;;;;;;;;;;;;6315159;22;19914;-91
2023/06/01 17:50:16;;;;;;;;;;;;;;;;;;6318316;22;19985;-91
2023/06/01 17:52:41;;;;;;;;;;;;;;;;;;6317928;22;19918;-92